aviador You're here:

KNEW Decoded Metar

NEW ORLEANS/LAKE in LA, USA
Report Time2018-05-23 17:53:00
UTC Time2018-05-23 18:40:17
Flight Rules vfr VFR
Wind350° at 07 kt
W.Decomp.*RWY 36: 6.8 kt HW 1.5 kt LCW
RWY 27: 1.5 kt HW 6.8 kt RCW
W.Rank350° ranks 27
Current wind is below 350° avg. (9.9)
Visibility9999 m
Phenomena:N/A
Clouds:Scattered 030 Hf
Expected CloudBase > 4,000 ft AGL from Temp-Dew spread
CeilingNone
Temp32°C (ISA +17)
Dew Point22°C (55% RH)
Heat Index35.6°C
QNH1018 hPa
Density Alt2,133 ft
Elevation10 ft
Report Wrong Elevation
Raw Report
KNEW 231753Z 35007KT 10SM SCT030 32/22 A3006 RMK AO2 LTG DSNT NE
SLP173 T03170217 10317 20256 58004=

Extra information for KNEW:More info

Metar Taf Metar & Taf Last 4 Metars F.Rules Stats Wind Profile Meteogram Temp Stats Airport Information Weather charts Add Link Nearby VenuesMetar ALERT Operation Metar Decoded Social comments

AIRNAV info for KNEW